SLRY  Reyes Airport

Add Bookmark

Reyes, Bolivia

Status IATA
Operational REY
Latitude Longitude
14° 18' 15" S 67° 21' 12" W
-14.304400 -67.353401
Local (DST -4) UTC (GMT -4)
Sep 23, 2014 06:22 Sep 23, 2014 22:22
Sunrise-Sunset Local UTC
Begin Civil Twilight 05:55 09:55
Sunrise 06:16 10:16
Sunset 06:26 22:26
End Civil Twilight 06:47 22:47

Current Weather

METAR Observed VFR
SLRY 232200Z 34008KT 9999 NSC 33/21 Q1008 Tue, Sep 23, 2014 @ 22:00 UTC
(22 Minutes ago)
Visual Flight Rules
Wind Visibility Clouds Conditions
340° at 8 knots (15 kph) 10 km or more
  • Clear skies
  • No significant weather
Temperatures Readings Precipitation
Current Temp 33°C (91°F)
Dewpoint 21°C (70°F)
Heat Index 36°C (96°F)
Humidity 49%
Altimeter 29.76"Hg
Sea Level Pressure 1008mb
Field Elevation 918.64'
None Recorded

Additional weather within a 92.6km radius of SLRY

Map ICAO Location
SLRQ 20.7km S (229°)

24 Hour Weather History

Loading
-

24 Hour Weather Graphs

Loading
-

CheckWX.com is intended as a tool to help pilots better visualize weather data. It is not intended as a substitute for an official weather briefing obtained from a Flight Service Station. CheckWX.com does not meet the FAA requirements for an official pre-flight weather briefing. Therefore, it's important that pilots still call and obtain an official FSS pre-flight weather briefing.